createdAt,value
2019-04-14T00:02:31.310Z,31.68
2019-04-14T00:05:03.971Z,30.72
2019-04-14T00:07:36.320Z,31.50
2019-04-14T00:10:09.448Z,31.15
2019-04-14T00:12:40.533Z,31.15
2019-04-14T00:15:25.887Z,31.77
2019-04-14T00:17:45.634Z,32.78
2019-04-14T00:20:18.595Z,32.78
2019-04-14T00:22:49.145Z,32.30
2019-04-14T00:25:19.576Z,30.92
2019-04-14T00:27:52.098Z,32.17
2019-04-14T00:30:25.079Z,31.45
2019-04-14T00:32:59.505Z,32.78
2019-04-14T00:35:56.009Z,31.85
2019-04-14T00:38:30.273Z,30.45
2019-04-14T00:41:39.471Z,30.55
2019-04-14T00:44:23.193Z,31.70
2019-04-14T00:46:58.240Z,31.27
2019-04-14T00:49:29.010Z,31.17
2019-04-14T00:51:59.839Z,31.30
2019-04-14T00:54:30.464Z,31.30
2019-04-14T00:57:01.193Z,31.40
2019-04-14T00:59:31.537Z,31.52
2019-04-14T01:02:01.954Z,31.87
2019-04-14T01:04:32.278Z,31.62
2019-04-14T01:07:02.791Z,31.17
2019-04-14T01:09:33.060Z,33.10
2019-04-14T01:12:03.913Z,33.05
2019-04-14T01:14:34.306Z,33.90
2019-04-14T01:17:04.861Z,31.70
2019-04-14T01:19:35.514Z,30.90
2019-04-14T01:22:07.474Z,32.63
2019-04-14T01:24:38.196Z,33.13
2019-04-14T01:27:08.666Z,33.53
2019-04-14T01:29:39.034Z,33.98
2019-04-14T01:32:11.216Z,33.13
2019-04-14T01:34:41.781Z,34.58
2019-04-14T01:37:12.127Z,35.88
2019-04-14T01:39:43.461Z,36.55
2019-04-14T01:42:13.992Z,34.78
2019-04-14T01:44:46.055Z,34.55
2019-04-14T01:47:16.572Z,35.78
2019-04-14T01:49:46.926Z,35.45
2019-04-14T01:52:36.273Z,35.15
2019-04-14T01:55:29.070Z,34.50
2019-04-14T01:58:25.057Z,35.52
2019-04-14T02:01:20.326Z,34.33
2019-04-14T02:03:51.930Z,36.58
2019-04-14T02:06:22.394Z,35.10
2019-04-14T02:08:54.693Z,36.60
2019-04-14T02:11:27.032Z,36.13
2019-04-14T02:13:57.620Z,37.55
2019-04-14T02:16:36.299Z,37.05
2019-04-14T02:19:00.367Z,37.67
2019-04-14T02:21:32.420Z,38.05
2019-04-14T02:24:03.156Z,37.48
2019-04-14T02:26:39.328Z,37.35
2019-04-14T02:29:09.997Z,38.95
2019-04-14T02:32:13.795Z,37.13
2019-04-14T02:34:43.801Z,38.28
2019-04-14T02:37:10.744Z,37.03
2019-04-14T02:39:46.679Z,38.65
2019-04-14T02:44:51.853Z,37.70
2019-04-14T02:47:38.832Z,38.20
2019-04-14T02:49:51.211Z,38.55
2019-04-14T02:57:38.411Z,37.13
2019-04-14T03:00:00.788Z,37.65
2019-04-14T03:07:37.866Z,37.17
2019-04-14T03:10:04.858Z,36.98
2019-04-14T03:15:07.063Z,39.30
2019-04-14T03:18:21.786Z,37.13
2019-04-14T03:20:45.628Z,38.30
2019-04-14T03:23:53.422Z,36.85
2019-04-14T03:26:11.639Z,38.05
2019-04-14T03:28:47.236Z,39.25
2019-04-14T03:31:37.535Z,38.78
2019-04-14T03:34:17.032Z,36.60
2019-04-14T03:37:10.559Z,38.73
2019-04-14T03:39:00.298Z,38.63
2019-04-14T03:43:54.279Z,37.50
2019-04-14T03:46:36.177Z,37.75
2019-04-14T03:49:10.076Z,37.28
2019-04-14T03:54:06.153Z,37.25
2019-04-14T03:56:47.292Z,35.63
2019-04-14T03:59:19.460Z,36.95
2019-04-14T04:01:50.176Z,37.25
2019-04-14T04:04:20.688Z,37.00
2019-04-14T04:06:51.136Z,35.75
2019-04-14T04:09:25.730Z,37.03
2019-04-14T04:11:56.413Z,37.48
2019-04-14T04:14:27.099Z,37.00
2019-04-14T04:17:16.902Z,36.93
2019-04-14T04:20:02.466Z,36.73
2019-04-14T04:22:58.722Z,35.30
2019-04-14T04:25:35.353Z,36.48
2019-04-14T04:28:27.791Z,36.73
2019-04-14T04:31:04.527Z,35.63
2019-04-14T04:33:57.257Z,37.20
2019-04-14T04:36:35.709Z,37.53
2019-04-14T04:39:14.961Z,36.42
2019-04-14T04:41:47.957Z,36.00
2019-04-14T04:44:18.461Z,36.05
2019-04-14T04:46:48.825Z,38.25
2019-04-14T04:49:23.105Z,36.75
2019-04-14T04:51:52.944Z,35.92
2019-04-14T04:54:25.732Z,36.00
2019-04-14T04:56:56.139Z,37.10
2019-04-14T04:59:27.686Z,35.65
2019-04-14T05:01:58.194Z,36.42
2019-04-14T05:04:28.888Z,36.00
2019-04-14T05:07:01.488Z,35.38
2019-04-14T05:09:51.351Z,35.20
2019-04-14T05:12:41.199Z,35.35
2019-04-14T05:15:38.570Z,35.33
2019-04-14T05:18:22.659Z,35.70
2019-04-14T05:20:53.281Z,35.75
2019-04-14T05:23:23.851Z,35.70
2019-04-14T05:25:55.945Z,35.55
2019-04-14T05:28:26.804Z,33.55
2019-04-14T05:30:57.414Z,34.23
2019-04-14T05:33:27.786Z,35.13
2019-04-14T05:35:58.350Z,34.75
2019-04-14T05:38:32.225Z,33.65
2019-04-14T05:41:02.741Z,34.23
2019-04-14T05:43:40.630Z,35.48
2019-04-14T05:46:05.606Z,33.13
2019-04-14T05:48:35.965Z,34.38
2019-04-14T05:51:08.937Z,33.35
2019-04-14T05:53:39.431Z,33.98
2019-04-14T05:56:09.978Z,32.78
2019-04-14T05:58:40.470Z,32.55
2019-04-14T06:01:12.378Z,32.90
2019-04-14T06:03:43.240Z,33.23
2019-04-14T06:06:15.145Z,34.23
2019-04-14T06:08:45.414Z,33.33
2019-04-14T06:11:16.843Z,32.28
2019-04-14T06:13:47.566Z,31.90
2019-04-14T06:16:58.784Z,32.33
2019-04-14T06:21:00.013Z,30.72
2019-04-14T06:40:14.185Z,29.20
2019-04-14T06:43:24.645Z,28.50
2019-04-14T06:46:13.263Z,28.40
2019-04-14T06:49:14.437Z,27.37
2019-04-14T06:52:52.615Z,28.35
2019-04-14T06:56:32.687Z,26.20
2019-04-14T07:03:19.493Z,25.72
2019-04-14T07:06:47.333Z,24.47
2019-04-14T07:09:30.456Z,23.67
2019-04-14T07:12:12.767Z,23.60
2019-04-14T07:15:02.420Z,23.70
2019-04-14T07:17:56.863Z,22.73
2019-04-14T07:22:26.313Z,22.10
2019-04-14T07:24:51.065Z,20.52
2019-04-14T07:27:51.743Z,20.77
2019-04-14T07:30:58.846Z,21.07
2019-04-14T07:33:47.814Z,19.60
2019-04-14T07:45:46.373Z,19.40
2019-04-14T07:48:27.394Z,19.60
2019-04-14T07:51:11.935Z,19.52
2019-04-14T07:54:01.790Z,19.57
2019-04-14T07:56:57.790Z,19.57
2019-04-14T07:59:42.194Z,19.82
2019-04-14T08:02:34.948Z,19.30
2019-04-14T08:05:26.180Z,17.77
2019-04-14T08:08:06.762Z,18.50
2019-04-14T08:10:38.763Z,16.90
2019-04-14T08:13:10.112Z,18.12
2019-04-14T08:15:42.198Z,17.37
2019-04-14T08:18:15.673Z,16.02
2019-04-14T08:20:49.525Z,16.32
2019-04-14T08:23:23.152Z,17.15
2019-04-14T08:26:07.340Z,16.45
2019-04-14T08:28:38.585Z,16.30
2019-04-14T08:31:09.295Z,15.70
2019-04-14T08:33:46.509Z,16.25
2019-04-14T08:36:18.063Z,15.35
2019-04-14T08:38:49.060Z,15.32
2019-04-14T08:41:20.250Z,15.83
2019-04-14T08:43:57.504Z,15.65
2019-04-14T08:46:41.569Z,15.05
2019-04-14T08:49:19.407Z,14.90
2019-04-14T08:52:20.054Z,14.47
2019-04-14T08:55:13.155Z,13.53
2019-04-14T08:58:04.208Z,12.95
2019-04-14T09:01:11.882Z,13.05
2019-04-14T09:04:00.193Z,12.07
2019-04-14T09:06:49.810Z,13.35
2019-04-14T09:09:32.573Z,11.43
2019-04-14T09:12:26.295Z,12.85
2019-04-14T09:15:00.224Z,13.15
2019-04-14T09:17:31.859Z,12.63
2019-04-14T09:20:09.282Z,11.83
2019-04-14T09:22:42.017Z,12.37
2019-04-14T09:25:17.434Z,12.15
2019-04-14T09:27:51.839Z,11.97
2019-04-14T09:30:24.335Z,11.60
2019-04-14T09:32:54.871Z,11.18
2019-04-14T09:35:27.453Z,12.18
2019-04-14T09:37:58.312Z,12.03
2019-04-14T09:40:29.804Z,12.13
2019-04-14T09:43:02.934Z,11.93
2019-04-14T09:45:33.780Z,11.65
2019-04-14T09:48:14.206Z,11.50
2019-04-14T09:51:31.228Z,11.83
2019-04-14T09:54:16.087Z,12.50
2019-04-14T09:56:50.292Z,11.95
2019-04-14T09:59:21.434Z,11.95
2019-04-14T10:01:58.075Z,12.05
2019-04-14T10:04:32.826Z,10.98
2019-04-14T10:07:04.338Z,11.65
2019-04-14T10:09:35.164Z,11.60
2019-04-14T10:12:15.538Z,10.88
2019-04-14T10:14:41.669Z,11.25
2019-04-14T10:17:13.148Z,11.63
2019-04-14T10:19:46.401Z,12.07
2019-04-14T10:22:18.107Z,12.30
2019-04-14T10:24:59.894Z,11.50
2019-04-14T10:28:10.403Z,11.45
2019-04-14T10:31:47.418Z,11.22
2019-04-14T10:34:24.175Z,11.88
2019-04-14T10:37:16.366Z,11.57
2019-04-14T10:39:47.460Z,10.78
2019-04-14T10:42:18.590Z,11.45
2019-04-14T10:44:54.445Z,11.70
2019-04-14T10:47:44.338Z,11.68
2019-04-14T10:50:31.620Z,11.93
2019-04-14T10:53:37.532Z,11.55
2019-04-14T10:56:32.041Z,11.68
2019-04-14T10:59:03.110Z,12.30
2019-04-14T11:01:52.564Z,12.03
2019-04-14T11:04:34.052Z,12.25
2019-04-14T11:07:14.792Z,11.85
2019-04-14T11:10:04.613Z,11.85
2019-04-14T11:12:41.250Z,12.10
2019-04-14T11:15:15.486Z,10.90
2019-04-14T11:17:45.735Z,11.90
2019-04-14T11:20:16.717Z,10.55
2019-04-14T11:22:47.116Z,10.80
2019-04-14T11:25:19.230Z,11.57
2019-04-14T11:27:50.296Z,11.65
2019-04-14T11:30:22.684Z,11.08
2019-04-14T11:33:26.278Z,11.08
2019-04-14T11:36:24.800Z,12.03
2019-04-14T11:39:06.997Z,12.58
2019-04-14T11:41:51.363Z,11.63
2019-04-14T11:47:45.603Z,11.48
2019-04-14T11:50:30.675Z,11.65
2019-04-14T11:56:15.479Z,12.03
2019-04-14T11:59:04.331Z,11.30
2019-04-14T12:02:07.318Z,11.63
2019-04-14T12:04:50.139Z,11.78
2019-04-14T12:07:43.036Z,11.80
2019-04-14T12:10:26.095Z,11.33
2019-04-14T12:13:25.110Z,11.55
2019-04-14T12:16:24.988Z,11.90
2019-04-14T12:19:05.549Z,12.20
2019-04-14T12:23:06.292Z,12.05
2019-04-14T12:25:33.325Z,11.70
2019-04-14T12:35:33.838Z,11.63
2019-04-14T12:38:29.832Z,11.50
2019-04-14T12:41:08.237Z,11.53
2019-04-14T12:44:24.970Z,11.80
2019-04-14T12:47:06.543Z,11.68
2019-04-14T12:49:53.990Z,10.63
2019-04-14T12:52:27.445Z,11.30
2019-04-14T12:54:58.625Z,11.48
2019-04-14T12:57:47.050Z,12.65
2019-04-14T13:00:38.458Z,11.53
2019-04-14T13:03:11.394Z,11.85
2019-04-14T13:05:43.893Z,11.03
2019-04-14T13:08:14.403Z,11.48
2019-04-14T13:10:44.976Z,11.30
2019-04-14T13:13:15.852Z,11.70
2019-04-14T13:15:47.845Z,11.25
2019-04-14T13:18:18.895Z,11.15
2019-04-14T13:20:50.898Z,11.30
2019-04-14T13:23:21.854Z,13.22
2019-04-14T13:25:52.974Z,12.47
2019-04-14T13:28:31.625Z,12.50
2019-04-14T13:31:03.631Z,12.15
2019-04-14T13:33:34.133Z,12.10
2019-04-14T13:36:09.535Z,12.20
2019-04-14T13:38:39.919Z,12.75
2019-04-14T13:41:13.680Z,12.53
2019-04-14T13:43:45.568Z,11.57
2019-04-14T13:46:16.335Z,12.43
2019-04-14T13:49:07.902Z,11.80
2019-04-14T13:51:39.624Z,11.95
2019-04-14T13:54:12.939Z,12.50
2019-04-14T13:56:43.689Z,12.28
2019-04-14T13:59:17.630Z,11.43
2019-04-14T14:02:00.382Z,11.20
2019-04-14T14:04:36.734Z,11.63
2019-04-14T14:07:19.794Z,12.18
2019-04-14T14:09:51.021Z,11.22
2019-04-14T14:12:33.402Z,11.80
2019-04-14T14:15:25.195Z,11.05
2019-04-14T14:18:13.293Z,10.63
2019-04-14T14:20:56.138Z,11.43
2019-04-14T14:23:36.505Z,10.65
2019-04-14T14:26:10.123Z,11.20
2019-04-14T14:28:40.549Z,11.12
2019-04-14T14:31:11.184Z,11.43
2019-04-14T14:33:45.323Z,9.53
2019-04-14T14:36:15.480Z,8.75
2019-04-14T14:38:46.525Z,10.65
2019-04-14T14:41:19.306Z,8.90
2019-04-14T14:43:50.644Z,9.10
2019-04-14T14:46:40.272Z,8.50
2019-04-14T14:49:27.184Z,9.90
2019-04-14T14:52:03.169Z,7.60
2019-04-14T14:54:34.003Z,6.90
2019-04-14T14:57:07.634Z,7.22
2019-04-14T14:59:38.032Z,7.42
2019-04-14T15:02:09.019Z,8.15
2019-04-14T15:04:40.596Z,7.65
2019-04-14T15:07:12.618Z,7.42
2019-04-14T15:09:43.109Z,7.20
2019-04-14T15:12:16.504Z,7.37
2019-04-14T15:14:47.149Z,7.62
2019-04-14T15:17:20.271Z,7.08
2019-04-14T15:19:50.965Z,7.60
2019-04-14T15:22:23.186Z,6.58
2019-04-14T15:24:56.701Z,6.97
2019-04-14T15:27:27.602Z,7.10
2019-04-14T15:29:59.104Z,7.25
2019-04-14T15:32:31.591Z,7.72
2019-04-14T15:35:03.335Z,7.08
2019-04-14T15:37:34.928Z,7.97
2019-04-14T15:40:05.726Z,8.00
2019-04-14T15:42:37.481Z,7.45
2019-04-14T15:45:09.643Z,7.87
2019-04-14T15:47:40.234Z,8.40
2019-04-14T15:50:10.718Z,8.63
2019-04-14T15:52:41.131Z,7.67
2019-04-14T15:55:13.939Z,7.50
2019-04-14T15:57:56.629Z,7.72
2019-04-14T16:00:47.481Z,7.87
2019-04-14T16:03:36.252Z,7.55
2019-04-14T16:06:27.000Z,7.45
2019-04-14T16:09:15.203Z,7.33
2019-04-14T16:12:04.346Z,7.72
2019-04-14T16:14:59.782Z,7.80
2019-04-14T16:17:59.972Z,8.68
2019-04-14T16:20:32.423Z,6.92
2019-04-14T16:23:05.795Z,7.30
2019-04-14T16:25:53.900Z,8.78
2019-04-14T16:28:43.478Z,7.95
2019-04-14T16:31:42.065Z,7.62
2019-04-14T16:34:27.641Z,8.05
2019-04-14T16:37:01.051Z,8.48
2019-04-14T16:39:31.873Z,8.55
2019-04-14T16:42:03.910Z,8.90
2019-04-14T16:44:34.447Z,8.43
2019-04-14T16:47:06.895Z,9.10
2019-04-14T16:49:37.590Z,8.13
2019-04-14T16:52:26.029Z,7.65
2019-04-14T16:55:02.383Z,8.40
2019-04-14T16:57:53.814Z,7.55
2019-04-14T17:00:29.807Z,7.50
2019-04-14T17:03:00.637Z,6.50
2019-04-14T17:05:32.955Z,6.92
2019-04-14T17:08:03.500Z,6.55
2019-04-14T17:10:34.144Z,6.60
2019-04-14T17:13:04.566Z,6.87
2019-04-14T17:15:48.578Z,6.90
2019-04-14T17:18:32.745Z,7.05
2019-04-14T17:21:21.114Z,7.17
2019-04-14T17:24:02.567Z,7.92
2019-04-14T17:26:41.309Z,8.18
2019-04-14T17:29:27.093Z,8.18
2019-04-14T17:32:22.964Z,8.58
2019-04-14T17:35:19.314Z,7.97
2019-04-14T17:37:59.307Z,8.30
2019-04-14T17:40:40.575Z,8.13
2019-04-14T17:43:36.843Z,7.22
2019-04-14T17:46:37.023Z,8.65
2019-04-14T17:49:28.936Z,8.35
2019-04-14T17:52:17.344Z,7.90
2019-04-14T17:55:03.051Z,7.65
2019-04-14T17:57:58.785Z,7.17
2019-04-14T18:00:53.154Z,7.30
2019-04-14T18:03:31.966Z,7.22
2019-04-14T18:06:07.122Z,7.22
2019-04-14T18:08:56.389Z,7.35
2019-04-14T18:11:41.751Z,7.25
2019-04-14T18:14:32.258Z,7.42
2019-04-14T18:17:11.820Z,6.78
2019-04-14T18:19:49.984Z,7.22
2019-04-14T18:22:26.100Z,14.47
2019-04-14T18:24:57.319Z,8.63
2019-04-14T18:27:29.257Z,6.47
2019-04-14T18:30:22.766Z,6.55
2019-04-14T18:33:07.982Z,6.60
2019-04-14T18:35:50.766Z,5.75
2019-04-14T18:38:49.982Z,6.55
2019-04-14T18:41:28.652Z,6.03
2019-04-14T18:44:19.335Z,5.47
2019-04-14T18:47:25.627Z,6.55
2019-04-14T18:50:12.451Z,6.15
2019-04-14T18:53:06.196Z,5.97
2019-04-14T18:55:56.456Z,8.33
2019-04-14T18:58:40.620Z,6.05
2019-04-14T19:01:23.095Z,5.65
2019-04-14T19:03:56.311Z,5.58
2019-04-14T19:06:28.946Z,5.95
2019-04-14T19:09:00.738Z,5.62
2019-04-14T19:11:44.728Z,5.60
2019-04-14T19:14:21.818Z,5.95
2019-04-14T19:16:59.505Z,5.87
2019-04-14T19:19:31.437Z,5.50
2019-04-14T19:22:06.500Z,5.33
2019-04-14T19:24:38.268Z,5.45
2019-04-14T19:27:09.594Z,4.58
2019-04-14T19:29:41.130Z,6.20
2019-04-14T19:32:15.142Z,5.65
2019-04-14T19:34:46.887Z,5.58
2019-04-14T19:37:22.505Z,4.87
2019-04-14T19:39:54.509Z,5.58
2019-04-14T19:42:26.518Z,5.08
2019-04-14T19:44:57.260Z,5.10
2019-04-14T19:47:31.180Z,5.40
2019-04-14T19:50:01.765Z,4.58
2019-04-14T19:52:32.511Z,5.20
2019-04-14T19:55:03.627Z,5.42
2019-04-14T19:57:37.477Z,5.42
2019-04-14T20:00:09.301Z,5.42
2019-04-14T20:02:40.328Z,4.87
2019-04-14T20:05:11.520Z,5.17
2019-04-14T20:07:42.773Z,5.20
2019-04-14T20:10:14.435Z,4.72
2019-04-14T20:12:45.132Z,5.08
2019-04-14T20:15:19.060Z,4.90
2019-04-14T20:18:14.176Z,5.47
2019-04-14T20:21:03.606Z,5.03
2019-04-14T20:24:02.790Z,4.87
2019-04-14T20:27:01.844Z,4.95
2019-04-14T20:29:36.984Z,5.00
2019-04-14T20:32:19.987Z,5.20
2019-04-14T20:34:51.881Z,4.80
2019-04-14T20:37:22.813Z,4.30
2019-04-14T20:39:53.430Z,4.62
2019-04-14T20:42:25.787Z,4.95
2019-04-14T20:44:56.830Z,4.65
2019-04-14T20:47:27.652Z,4.97
2019-04-14T20:49:58.469Z,4.62
2019-04-14T20:52:29.365Z,4.70
2019-04-14T20:55:00.199Z,4.67
2019-04-14T20:57:31.024Z,4.62
2019-04-14T21:00:02.143Z,4.85
2019-04-14T21:02:45.442Z,4.60
2019-04-14T21:05:26.756Z,4.67
2019-04-14T21:08:20.657Z,4.10
2019-04-14T21:11:10.028Z,4.10
2019-04-14T21:14:02.342Z,4.62
2019-04-14T21:16:37.344Z,4.20
2019-04-14T21:19:19.344Z,4.53
2019-04-14T21:22:01.429Z,4.70
2019-04-14T21:24:36.934Z,4.53
2019-04-14T21:27:17.200Z,4.35
2019-04-14T21:30:15.942Z,4.17
2019-04-14T21:33:11.942Z,4.62
2019-04-14T21:35:52.561Z,4.80
2019-04-14T21:38:36.986Z,4.35
2019-04-14T21:41:12.225Z,3.92
2019-04-14T21:43:42.680Z,4.60
2019-04-14T21:46:13.016Z,5.12
2019-04-14T21:48:43.549Z,4.35
2019-04-14T21:51:13.883Z,4.53
2019-04-14T21:53:46.317Z,4.58
2019-04-14T21:56:16.724Z,4.80
2019-04-14T21:59:02.169Z,4.42
2019-04-14T22:02:16.213Z,4.35
2019-04-14T22:05:04.503Z,4.33
2019-04-14T22:07:49.626Z,4.47
2019-04-14T22:10:39.919Z,4.40
2019-04-14T22:13:10.407Z,5.08
2019-04-14T22:15:41.196Z,4.90
2019-04-14T22:18:11.815Z,4.40
2019-04-14T22:20:42.329Z,4.90
2019-04-14T22:23:13.163Z,4.47
2019-04-14T22:25:44.798Z,4.70
2019-04-14T22:28:15.382Z,5.10
2019-04-14T22:30:45.945Z,5.28
2019-04-14T22:33:16.405Z,4.80
2019-04-14T22:35:46.885Z,4.75
2019-04-14T22:38:17.560Z,4.65
2019-04-14T22:40:48.016Z,4.72
2019-04-14T22:43:18.445Z,5.20
2019-04-14T22:45:49.083Z,5.10
2019-04-14T22:48:19.527Z,4.90
2019-04-14T22:50:50.044Z,5.25
2019-04-14T22:53:20.388Z,5.33
2019-04-14T22:55:50.954Z,5.08
2019-04-14T22:58:21.323Z,5.40
2019-04-14T23:01:02.448Z,5.15
2019-04-14T23:03:50.825Z,5.33
2019-04-14T23:06:31.284Z,5.95
2019-04-14T23:09:26.763Z,5.05
2019-04-14T23:12:35.849Z,5.37
2019-04-14T23:15:38.390Z,6.10
2019-04-14T23:18:24.941Z,5.45
2019-04-14T23:21:23.627Z,5.97
2019-04-14T23:24:06.423Z,5.70
2019-04-14T23:26:37.078Z,5.55
2019-04-14T23:29:07.429Z,5.87
2019-04-14T23:31:37.936Z,6.25
2019-04-14T23:34:08.469Z,6.20
2019-04-14T23:36:38.765Z,6.62
2019-04-14T23:39:11.245Z,6.15
2019-04-14T23:41:41.844Z,6.47
2019-04-14T23:44:13.326Z,6.20
2019-04-14T23:46:43.766Z,6.35
2019-04-14T23:49:14.195Z,6.12
2019-04-14T23:51:45.710Z,5.67
2019-04-14T23:54:16.211Z,5.80
2019-04-14T23:56:46.790Z,6.33
2019-04-14T23:59:17.187Z,6.75
